Greater Peoria Regional Airport
KPIA : now visible

Airfield :











YOU CAN JOIN US ON...

 
LOGIN :

Register | Disclaimer

   EN    FR    IT 

 









Legend :    VFR   Marginal VFR   IFR   Intensive IFR   Very Intensive IFR
Visi :
Ceiling :
>= 8 km
>= 3000ft
5 to 8 km
1000 to 3000 ft
1500m to 5 km
500 to 1000 ft
800 to 1500m
200 to 500 ft
< 800m
< 200 ft
Symbols :   Thunderstorms  Fog  Heavy snow  Heavy precipitations  Wind > 20 kt







- Airport Elevation : 660 ft
- IATA code : PIA


KPIA - Greater Peoria Regional

CURRENT METAR :
  • 260154Z 10005KT 10SM OVC046 23/16 A2993 RMK AO2 SLP130 T02280156

EXPIRED METARs :
  • 260054Z 09004KT 10SM BKN055 OVC075 23/15 A2992 RMK AO2 RAB29E38 SLP129 P0000 T02280150
  • 252354Z 10005KT 10SM OVC065 23/14 A2993 RMK AO2 SLP133 60000 T02280144 10244 20228 56012

TAF KPIA
Valid from the 26 at 00:00 until the 27 at 00:00 UTC


252323Z 2600/2624 11007KT P6SM VCSH SCT035 BKN080
FM260700 12007KT 5SM -SHRA OVC025
FM261100 13007KT 2SM TSRA BR OVC007CB
FM261700 20009KT P6SM VCSH OVC012
FM262000 20010KT P6SM BKN024
No reported NOTAMs for that airfield.



MET'MAP, your aeronautical weather chart ! - Copyright ORBIFLY December 2007 - Disclaimer

ORBIFLY MET'MAP TEAM :

Programming & Development : Alexandra Zaïnal
Concept & Development : Baudouin d'Aumeries
Co-Development & Prog : Marc-Olivier Méhu
Technical & hardware support : Manuel Goepfert

Contact : metmap@orbifly.com




SOURCES & CREDITS :

   NOAA       Earth
Advisory